sensor_id;sensor_type;location;lat;lon;timestamp;temperature;humidity
913;DHT22;443;51.448;7.028;2023-04-01T00:01:07;14.30;77.40
913;DHT22;443;51.448;7.028;2023-04-01T00:03:35;14.30;77.30
913;DHT22;443;51.448;7.028;2023-04-01T00:06:03;14.30;77.10
913;DHT22;443;51.448;7.028;2023-04-01T00:08:30;14.30;77.00
913;DHT22;443;51.448;7.028;2023-04-01T00:10:57;14.40;77.30
913;DHT22;443;51.448;7.028;2023-04-01T00:13:24;14.30;77.00
913;DHT22;443;51.448;7.028;2023-04-01T00:15:52;14.30;77.10
913;DHT22;443;51.448;7.028;2023-04-01T00:18:19;14.40;77.10
913;DHT22;443;51.448;7.028;2023-04-01T00:20:48;14.30;76.70
913;DHT22;443;51.448;7.028;2023-04-01T00:23:15;14.30;76.40
913;DHT22;443;51.448;7.028;2023-04-01T00:25:44;14.30;76.90
913;DHT22;443;51.448;7.028;2023-04-01T00:28:13;14.40;76.90
913;DHT22;443;51.448;7.028;2023-04-01T00:30:40;14.40;76.90
913;DHT22;443;51.448;7.028;2023-04-01T00:33:06;14.40;76.70
913;DHT22;443;51.448;7.028;2023-04-01T00:35:33;14.40;77.10
913;DHT22;443;51.448;7.028;2023-04-01T00:38:02;14.30;76.90
913;DHT22;443;51.448;7.028;2023-04-01T00:40:31;14.40;77.40
913;DHT22;443;51.448;7.028;2023-04-01T00:42:59;14.30;76.90
913;DHT22;443;51.448;7.028;2023-04-01T00:45:32;14.30;77.00
913;DHT22;443;51.448;7.028;2023-04-01T00:48:02;14.30;77.20
913;DHT22;443;51.448;7.028;2023-04-01T00:50:31;14.20;77.50
913;DHT22;443;51.448;7.028;2023-04-01T00:53:00;14.30;77.50
913;DHT22;443;51.448;7.028;2023-04-01T00:55:30;14.20;77.10
913;DHT22;443;51.448;7.028;2023-04-01T00:57:59;14.30;77.40
913;DHT22;443;51.448;7.028;2023-04-01T01:00:26;14.20;77.40
913;DHT22;443;51.448;7.028;2023-04-01T01:02:53;14.30;77.50
913;DHT22;443;51.448;7.028;2023-04-01T01:05:26;14.20;77.30
913;DHT22;443;51.448;7.028;2023-04-01T01:08:00;14.20;77.50
913;DHT22;443;51.448;7.028;2023-04-01T01:10:32;14.20;77.60
913;DHT22;443;51.448;7.028;2023-04-01T01:13:06;14.20;77.40
913;DHT22;443;51.448;7.028;2023-04-01T01:15:43;14.20;77.20
913;DHT22;443;51.448;7.028;2023-04-01T01:18:17;14.20;77.60
913;DHT22;443;51.448;7.028;2023-04-01T01:21:01;14.20;77.40
913;DHT22;443;51.448;7.028;2023-04-01T01:26:44;14.20;77.50
913;DHT22;443;51.448;7.028;2023-04-01T01:29:30;14.20;78.20
913;DHT22;443;51.448;7.028;2023-04-01T01:32:04;14.10;77.00
913;DHT22;443;51.448;7.028;2023-04-01T01:34:38;14.20;77.70
913;DHT22;443;51.448;7.028;2023-04-01T01:37:10;14.20;77.40
913;DHT22;443;51.448;7.028;2023-04-01T01:39:39;14.20;77.50
913;DHT22;443;51.448;7.028;2023-04-01T01:42:11;14.20;77.40
913;DHT22;443;51.448;7.028;2023-04-01T01:44:42;14.10;77.60
913;DHT22;443;51.448;7.028;2023-04-01T01:47:11;14.20;77.50
913;DHT22;443;51.448;7.028;2023-04-01T01:49:39;14.20;77.40
913;DHT22;443;51.448;7.028;2023-04-01T01:52:09;14.10;77.40
913;DHT22;443;51.448;7.028;2023-04-01T01:54:46;14.10;77.10
913;DHT22;443;51.448;7.028;2023-04-01T01:57:13;14.20;77.50
913;DHT22;443;51.448;7.028;2023-04-01T01:59:42;14.20;77.50
913;DHT22;443;51.448;7.028;2023-04-01T02:02:11;14.20;76.90
913;DHT22;443;51.448;7.028;2023-04-01T02:04:42;14.20;77.10
913;DHT22;443;51.448;7.028;2023-04-01T02:07:16;14.20;77.30
913;DHT22;443;51.448;7.028;2023-04-01T02:09:45;14.20;77.00
913;DHT22;443;51.448;7.028;2023-04-01T02:12:14;14.20;77.00
913;DHT22;443;51.448;7.028;2023-04-01T02:14:45;14.20;76.90
913;DHT22;443;51.448;7.028;2023-04-01T02:17:14;14.20;77.20
913;DHT22;443;51.448;7.028;2023-04-01T02:19:47;14.30;77.30
913;DHT22;443;51.448;7.028;2023-04-01T02:22:19;14.10;76.70
913;DHT22;443;51.448;7.028;2023-04-01T02:24:46;14.10;77.30
913;DHT22;443;51.448;7.028;2023-04-01T02:27:14;14.10;77.50
913;DHT22;443;51.448;7.028;2023-04-01T02:29:41;14.10;77.30
913;DHT22;443;51.448;7.028;2023-04-01T02:32:09;14.00;77.40
913;DHT22;443;51.448;7.028;2023-04-01T02:34:36;14.10;77.60
913;DHT22;443;51.448;7.028;2023-04-01T02:37:03;14.10;77.50
913;DHT22;443;51.448;7.028;2023-04-01T02:39:31;14.10;77.40
913;DHT22;443;51.448;7.028;2023-04-01T02:41:58;14.10;77.80
913;DHT22;443;51.448;7.028;2023-04-01T02:44:25;14.10;77.60
913;DHT22;443;51.448;7.028;2023-04-01T02:46:52;14.10;77.40
913;DHT22;443;51.448;7.028;2023-04-01T02:49:19;14.10;77.60
913;DHT22;443;51.448;7.028;2023-04-01T02:51:46;14.10;78.60
913;DHT22;443;51.448;7.028;2023-04-01T02:54:12;14.10;77.60
913;DHT22;443;51.448;7.028;2023-04-01T02:56:41;14.00;77.90
913;DHT22;443;51.448;7.028;2023-04-01T02:59:08;14.00;77.80
913;DHT22;443;51.448;7.028;2023-04-01T03:01:35;14.00;77.80
913;DHT22;443;51.448;7.028;2023-04-01T03:04:02;13.90;78.10
913;DHT22;443;51.448;7.028;2023-04-01T03:06:29;13.90;79.10
913;DHT22;443;51.448;7.028;2023-04-01T03:08:56;13.90;78.60
913;DHT22;443;51.448;7.028;2023-04-01T03:11:22;13.90;78.80
913;DHT22;443;51.448;7.028;2023-04-01T03:13:50;14.00;78.80
913;DHT22;443;51.448;7.028;2023-04-01T03:16:17;14.00;78.60
913;DHT22;443;51.448;7.028;2023-04-01T03:18:44;14.00;78.40
913;DHT22;443;51.448;7.028;2023-04-01T03:21:15;14.00;78.40
913;DHT22;443;51.448;7.028;2023-04-01T03:23:42;14.00;78.30
913;DHT22;443;51.448;7.028;2023-04-01T03:26:09;14.00;78.30
913;DHT22;443;51.448;7.028;2023-04-01T03:28:35;14.00;78.50
913;DHT22;443;51.448;7.028;2023-04-01T03:31:04;13.90;79.20
913;DHT22;443;51.448;7.028;2023-04-01T03:33:31;14.00;78.80
913;DHT22;443;51.448;7.028;2023-04-01T03:35:58;13.90;78.40
913;DHT22;443;51.448;7.028;2023-04-01T03:38:25;13.90;78.50
913;DHT22;443;51.448;7.028;2023-04-01T03:40:52;13.90;78.60
913;DHT22;443;51.448;7.028;2023-04-01T03:43:19;13.90;78.70
913;DHT22;443;51.448;7.028;2023-04-01T03:45:46;14.00;78.60
913;DHT22;443;51.448;7.028;2023-04-01T03:48:15;14.00;78.40
913;DHT22;443;51.448;7.028;2023-04-01T03:50:42;14.00;78.30
913;DHT22;443;51.448;7.028;2023-04-01T03:53:09;14.00;78.20
913;DHT22;443;51.448;7.028;2023-04-01T03:55:37;13.90;78.30
913;DHT22;443;51.448;7.028;2023-04-01T03:58:04;13.90;78.30
913;DHT22;443;51.448;7.028;2023-04-01T04:00:31;13.90;78.30
913;DHT22;443;51.448;7.028;2023-04-01T04:02:58;13.90;78.60
913;DHT22;443;51.448;7.028;2023-04-01T04:05:27;13.90;78.70
913;DHT22;443;51.448;7.028;2023-04-01T04:07:54;13.80;78.50
913;DHT22;443;51.448;7.028;2023-04-01T04:10:21;13.90;78.80
913;DHT22;443;51.448;7.028;2023-04-01T04:12:49;13.90;78.70
913;DHT22;443;51.448;7.028;2023-04-01T04:15:16;13.90;78.60
913;DHT22;443;51.448;7.028;2023-04-01T04:17:44;13.80;78.60
913;DHT22;443;51.448;7.028;2023-04-01T04:20:11;13.90;78.80
913;DHT22;443;51.448;7.028;2023-04-01T04:22:39;13.90;78.70
913;DHT22;443;51.448;7.028;2023-04-01T04:25:07;13.90;78.60
913;DHT22;443;51.448;7.028;2023-04-01T04:27:34;13.80;78.70
913;DHT22;443;51.448;7.028;2023-04-01T04:30:02;13.80;78.80
913;DHT22;443;51.448;7.028;2023-04-01T04:32:30;13.80;78.80
913;DHT22;443;51.448;7.028;2023-04-01T04:34:56;13.90;78.60
913;DHT22;443;51.448;7.028;2023-04-01T04:37:23;13.90;78.80
913;DHT22;443;51.448;7.028;2023-04-01T04:39:52;13.90;78.40
913;DHT22;443;51.448;7.028;2023-04-01T04:42:19;13.90;78.50
913;DHT22;443;51.448;7.028;2023-04-01T04:44:46;14.00;78.60
913;DHT22;443;51.448;7.028;2023-04-01T04:47:13;14.00;78.70
913;DHT22;443;51.448;7.028;2023-04-01T04:49:39;14.00;78.60
913;DHT22;443;51.448;7.028;2023-04-01T04:52:06;14.00;78.20
913;DHT22;443;51.448;7.028;2023-04-01T04:54:33;13.90;78.30
913;DHT22;443;51.448;7.028;2023-04-01T04:57:01;14.00;78.30
913;DHT22;443;51.448;7.028;2023-04-01T04:59:28;14.00;78.30
913;DHT22;443;51.448;7.028;2023-04-01T05:01:54;14.00;78.40
913;DHT22;443;51.448;7.028;2023-04-01T05:04:21;14.00;78.40
913;DHT22;443;51.448;7.028;2023-04-01T05:06:48;14.00;78.40
913;DHT22;443;51.448;7.028;2023-04-01T05:09:15;14.00;78.20
913;DHT22;443;51.448;7.028;2023-04-01T05:11:42;14.10;78.30
913;DHT22;443;51.448;7.028;2023-04-01T05:14:13;14.10;78.20
913;DHT22;443;51.448;7.028;2023-04-01T05:16:40;14.00;78.10
913;DHT22;443;51.448;7.028;2023-04-01T05:19:07;14.00;78.10
913;DHT22;443;51.448;7.028;2023-04-01T05:21:34;14.00;78.30
913;DHT22;443;51.448;7.028;2023-04-01T05:24:00;14.10;78.50
913;DHT22;443;51.448;7.028;2023-04-01T05:26:27;14.00;78.00
913;DHT22;443;51.448;7.028;2023-04-01T05:28:54;14.10;78.50
913;DHT22;443;51.448;7.028;2023-04-01T05:31:22;14.10;78.30
913;DHT22;443;51.448;7.028;2023-04-01T05:33:50;14.10;78.00
913;DHT22;443;51.448;7.028;2023-04-01T05:36:16;14.10;78.40
913;DHT22;443;51.448;7.028;2023-04-01T05:38:43;14.10;78.30
913;DHT22;443;51.448;7.028;2023-04-01T05:41:11;14.10;78.20
913;DHT22;443;51.448;7.028;2023-04-01T05:43:39;14.10;78.20
913;DHT22;443;51.448;7.028;2023-04-01T05:46:06;14.00;78.40
913;DHT22;443;51.448;7.028;2023-04-01T05:48:34;14.00;78.60
913;DHT22;443;51.448;7.028;2023-04-01T05:51:02;14.10;78.30
913;DHT22;443;51.448;7.028;2023-04-01T05:53:29;14.10;78.40
913;DHT22;443;51.448;7.028;2023-04-01T05:55:56;14.10;78.20
913;DHT22;443;51.448;7.028;2023-04-01T05:58:22;14.20;78.30
913;DHT22;443;51.448;7.028;2023-04-01T06:00:49;14.10;78.20
913;DHT22;443;51.448;7.028;2023-04-01T06:03:16;14.10;78.20
913;DHT22;443;51.448;7.028;2023-04-01T06:05:44;14.20;78.30
913;DHT22;443;51.448;7.028;2023-04-01T06:08:12;14.20;78.10
913;DHT22;443;51.448;7.028;2023-04-01T06:10:53;14.20;78.00
913;DHT22;443;51.448;7.028;2023-04-01T06:13:30;14.20;78.00
913;DHT22;443;51.448;7.028;2023-04-01T06:16:07;14.10;78.20
913;DHT22;443;51.448;7.028;2023-04-01T06:18:45;14.10;78.30
913;DHT22;443;51.448;7.028;2023-04-01T06:21:42;14.10;78.30
913;DHT22;443;51.448;7.028;2023-04-01T06:24:26;14.00;78.60
913;DHT22;443;51.448;7.028;2023-04-01T06:27:01;14.00;78.60
913;DHT22;443;51.448;7.028;2023-04-01T06:29:47;14.10;78.60
913;DHT22;443;51.448;7.028;2023-04-01T06:32:49;14.10;78.80
913;DHT22;443;51.448;7.028;2023-04-01T06:35:41;14.10;78.60
913;DHT22;443;51.448;7.028;2023-04-01T06:38:38;14.00;78.60
913;DHT22;443;51.448;7.028;2023-04-01T06:41:32;14.10;78.80
913;DHT22;443;51.448;7.028;2023-04-01T06:44:12;14.10;78.90
913;DHT22;443;51.448;7.028;2023-04-01T06:46:45;14.10;78.80
913;DHT22;443;51.448;7.028;2023-04-01T06:49:25;14.00;78.70
913;DHT22;443;51.448;7.028;2023-04-01T06:51:59;14.00;78.90
913;DHT22;443;51.448;7.028;2023-04-01T06:54:32;14.00;78.80
913;DHT22;443;51.448;7.028;2023-04-01T06:57:05;14.20;79.10
913;DHT22;443;51.448;7.028;2023-04-01T06:59:37;14.10;78.50
913;DHT22;443;51.448;7.028;2023-04-01T07:02:10;14.10;78.70
913;DHT22;443;51.448;7.028;2023-04-01T07:04:41;14.10;78.50
913;DHT22;443;51.448;7.028;2023-04-01T07:07:14;14.10;78.40
913;DHT22;443;51.448;7.028;2023-04-01T07:09:50;14.10;78.60
913;DHT22;443;51.448;7.028;2023-04-01T07:12:23;14.10;78.70
913;DHT22;443;51.448;7.028;2023-04-01T07:14:56;14.10;78.50
913;DHT22;443;51.448;7.028;2023-04-01T07:17:28;14.10;78.80
913;DHT22;443;51.448;7.028;2023-04-01T07:19:59;14.10;78.80
913;DHT22;443;51.448;7.028;2023-04-01T07:22:31;14.10;79.00
913;DHT22;443;51.448;7.028;2023-04-01T07:25:03;14.00;78.60
913;DHT22;443;51.448;7.028;2023-04-01T07:27:31;14.10;79.00
913;DHT22;443;51.448;7.028;2023-04-01T07:29:58;14.10;78.50
913;DHT22;443;51.448;7.028;2023-04-01T07:32:34;14.10;78.60
913;DHT22;443;51.448;7.028;2023-04-01T07:35:11;14.10;78.50
913;DHT22;443;51.448;7.028;2023-04-01T07:37:46;14.10;78.50
913;DHT22;443;51.448;7.028;2023-04-01T07:40:26;14.10;78.70
913;DHT22;443;51.448;7.028;2023-04-01T07:43:10;14.20;78.70
913;DHT22;443;51.448;7.028;2023-04-01T07:45:43;14.20;78.50
913;DHT22;443;51.448;7.028;2023-04-01T07:48:19;14.10;78.50
913;DHT22;443;51.448;7.028;2023-04-01T07:50:54;14.20;78.70
913;DHT22;443;51.448;7.028;2023-04-01T07:53:30;14.10;78.50
913;DHT22;443;51.448;7.028;2023-04-01T07:56:05;14.10;78.70
913;DHT22;443;51.448;7.028;2023-04-01T07:58:39;14.10;78.90
913;DHT22;443;51.448;7.028;2023-04-01T08:01:13;14.10;78.80
913;DHT22;443;51.448;7.028;2023-04-01T08:03:56;14.20;78.90
913;DHT22;443;51.448;7.028;2023-04-01T08:06:34;14.10;78.80
913;DHT22;443;51.448;7.028;2023-04-01T08:09:08;14.10;78.50
913;DHT22;443;51.448;7.028;2023-04-01T08:11:54;14.10;78.80
913;DHT22;443;51.448;7.028;2023-04-01T08:14:30;14.10;78.90
913;DHT22;443;51.448;7.028;2023-04-01T08:17:04;14.10;78.90
913;DHT22;443;51.448;7.028;2023-04-01T08:19:43;14.10;78.80
913;DHT22;443;51.448;7.028;2023-04-01T08:22:16;14.10;79.00
913;DHT22;443;51.448;7.028;2023-04-01T08:24:47;14.10;78.80
913;DHT22;443;51.448;7.028;2023-04-01T08:27:21;14.10;78.80
913;DHT22;443;51.448;7.028;2023-04-01T08:29:52;14.10;79.00
913;DHT22;443;51.448;7.028;2023-04-01T08:32:25;14.10;78.80
913;DHT22;443;51.448;7.028;2023-04-01T08:35:02;14.20;79.20
913;DHT22;443;51.448;7.028;2023-04-01T08:37:36;14.10;78.80
913;DHT22;443;51.448;7.028;2023-04-01T08:40:27;14.10;78.80
913;DHT22;443;51.448;7.028;2023-04-01T08:43:06;14.10;78.60
913;DHT22;443;51.448;7.028;2023-04-01T08:46:06;14.20;79.00
913;DHT22;443;51.448;7.028;2023-04-01T08:48:47;14.20;78.90
913;DHT22;443;51.448;7.028;2023-04-01T08:54:35;14.20;78.90
913;DHT22;443;51.448;7.028;2023-04-01T08:57:10;14.10;78.60
913;DHT22;443;51.448;7.028;2023-04-01T08:59:59;14.10;78.80
913;DHT22;443;51.448;7.028;2023-04-01T09:02:55;14.10;78.80
913;DHT22;443;51.448;7.028;2023-04-01T09:05:37;14.20;78.80
913;DHT22;443;51.448;7.028;2023-04-01T09:08:17;14.20;78.70
913;DHT22;443;51.448;7.028;2023-04-01T09:11:09;14.10;78.80
913;DHT22;443;51.448;7.028;2023-04-01T09:14:01;14.10;78.80
913;DHT22;443;51.448;7.028;2023-04-01T09:16:51;14.10;78.90
913;DHT22;443;51.448;7.028;2023-04-01T09:19:29;14.10;79.00
913;DHT22;443;51.448;7.028;2023-04-01T09:22:18;14.10;79.00
913;DHT22;443;51.448;7.028;2023-04-01T09:25:06;14.10;79.00
913;DHT22;443;51.448;7.028;2023-04-01T09:27:44;14.10;79.00
913;DHT22;443;51.448;7.028;2023-04-01T09:30:38;14.20;78.90
913;DHT22;443;51.448;7.028;2023-04-01T09:33:48;14.20;78.80
913;DHT22;443;51.448;7.028;2023-04-01T09:36:31;14.20;78.70
913;DHT22;443;51.448;7.028;2023-04-01T09:39:18;14.20;78.90
913;DHT22;443;51.448;7.028;2023-04-01T09:42:04;14.20;78.90
913;DHT22;443;51.448;7.028;2023-04-01T09:44:35;14.20;78.80
913;DHT22;443;51.448;7.028;2023-04-01T09:47:14;14.20;78.60
913;DHT22;443;51.448;7.028;2023-04-01T09:50:14;14.20;78.90
913;DHT22;443;51.448;7.028;2023-04-01T09:52:49;14.20;79.00
913;DHT22;443;51.448;7.028;2023-04-01T10:01:45;14.30;78.70
913;DHT22;443;51.448;7.028;2023-04-01T10:07:46;14.30;78.60
913;DHT22;443;51.448;7.028;2023-04-01T10:14:01;14.30;78.60
913;DHT22;443;51.448;7.028;2023-04-01T10:22:57;14.40;78.60
913;DHT22;443;51.448;7.028;2023-04-01T10:28:47;14.30;78.60
913;DHT22;443;51.448;7.028;2023-04-01T10:31:41;14.40;78.90
913;DHT22;443;51.448;7.028;2023-04-01T10:40:34;14.50;78.60
913;DHT22;443;51.448;7.028;2023-04-01T10:43:28;14.40;78.40
913;DHT22;443;51.448;7.028;2023-04-01T10:46:28;14.50;78.50
913;DHT22;443;51.448;7.028;2023-04-01T10:49:16;14.40;78.20
913;DHT22;443;51.448;7.028;2023-04-01T10:52:22;14.40;78.50
913;DHT22;443;51.448;7.028;2023-04-01T10:55:04;14.50;78.70
913;DHT22;443;51.448;7.028;2023-04-01T10:58:04;14.40;78.50
913;DHT22;443;51.448;7.028;2023-04-01T11:01:01;14.40;78.70
913;DHT22;443;51.448;7.028;2023-04-01T11:04:03;14.40;78.80
913;DHT22;443;51.448;7.028;2023-04-01T11:07:10;14.40;78.60
913;DHT22;443;51.448;7.028;2023-04-01T11:10:05;14.40;78.50
913;DHT22;443;51.448;7.028;2023-04-01T11:13:12;14.40;78.50
913;DHT22;443;51.448;7.028;2023-04-01T11:16:06;14.40;78.70
913;DHT22;443;51.448;7.028;2023-04-01T11:22:24;14.40;78.70
913;DHT22;443;51.448;7.028;2023-04-01T11:25:18;14.40;78.70
913;DHT22;443;51.448;7.028;2023-04-01T11:28:17;14.40;78.60
913;DHT22;443;51.448;7.028;2023-04-01T11:31:01;14.40;78.20
913;DHT22;443;51.448;7.028;2023-04-01T11:33:36;14.50;78.40
913;DHT22;443;51.448;7.028;2023-04-01T11:36:15;14.40;78.50
913;DHT22;443;51.448;7.028;2023-04-01T11:41:53;14.40;78.50
913;DHT22;443;51.448;7.028;2023-04-01T11:44:25;14.40;78.40
913;DHT22;443;51.448;7.028;2023-04-01T11:47:03;14.40;78.60
913;DHT22;443;51.448;7.028;2023-04-01T11:49:42;14.40;78.70
913;DHT22;443;51.448;7.028;2023-04-01T11:52:24;14.50;79.00
913;DHT22;443;51.448;7.028;2023-04-01T11:55:05;14.50;78.70
913;DHT22;443;51.448;7.028;2023-04-01T11:57:46;14.40;78.70
913;DHT22;443;51.448;7.028;2023-04-01T12:00:47;14.40;78.80
913;DHT22;443;51.448;7.028;2023-04-01T12:03:51;14.40;79.10
913;DHT22;443;51.448;7.028;2023-04-01T12:06:25;14.40;79.20
913;DHT22;443;51.448;7.028;2023-04-01T12:09:03;14.40;78.90
913;DHT22;443;51.448;7.028;2023-04-01T12:11:37;14.40;78.90
913;DHT22;443;51.448;7.028;2023-04-01T12:14:13;14.50;78.60
913;DHT22;443;51.448;7.028;2023-04-01T12:16:50;14.50;79.00
913;DHT22;443;51.448;7.028;2023-04-01T12:19:23;14.50;78.90
913;DHT22;443;51.448;7.028;2023-04-01T12:22:04;14.50;79.10
913;DHT22;443;51.448;7.028;2023-04-01T12:24:44;14.50;78.70
913;DHT22;443;51.448;7.028;2023-04-01T12:27:27;14.50;78.40
913;DHT22;443;51.448;7.028;2023-04-01T12:30:09;14.50;78.70
913;DHT22;443;51.448;7.028;2023-04-01T12:32:45;14.60;78.80
913;DHT22;443;51.448;7.028;2023-04-01T12:35:20;14.60;78.60
913;DHT22;443;51.448;7.028;2023-04-01T12:37:55;14.60;79.30
913;DHT22;443;51.448;7.028;2023-04-01T12:40:45;14.60;78.50
913;DHT22;443;51.448;7.028;2023-04-01T12:43:25;14.60;78.60
913;DHT22;443;51.448;7.028;2023-04-01T12:46:02;14.60;78.20
913;DHT22;443;51.448;7.028;2023-04-01T12:49:10;14.60;78.30
913;DHT22;443;51.448;7.028;2023-04-01T12:52:00;14.50;78.60
913;DHT22;443;51.448;7.028;2023-04-01T12:57:51;14.50;78.90
913;DHT22;443;51.448;7.028;2023-04-01T13:00:30;14.50;79.00
913;DHT22;443;51.448;7.028;2023-04-01T13:03:17;14.50;78.90
913;DHT22;443;51.448;7.028;2023-04-01T13:06:18;14.50;79.20
913;DHT22;443;51.448;7.028;2023-04-01T13:08:53;14.50;78.60
913;DHT22;443;51.448;7.028;2023-04-01T13:11:32;14.50;78.60
913;DHT22;443;51.448;7.028;2023-04-01T13:14:18;14.40;79.00
913;DHT22;443;51.448;7.028;2023-04-01T13:16:53;14.50;79.10
913;DHT22;443;51.448;7.028;2023-04-01T13:19:30;14.40;78.80
913;DHT22;443;51.448;7.028;2023-04-01T13:22:03;14.50;78.80
913;DHT22;443;51.448;7.028;2023-04-01T13:24:45;14.50;78.60
913;DHT22;443;51.448;7.028;2023-04-01T13:27:18;14.40;79.40
913;DHT22;443;51.448;7.028;2023-04-01T13:30:00;14.40;78.90
913;DHT22;443;51.448;7.028;2023-04-01T13:32:34;14.40;78.80
913;DHT22;443;51.448;7.028;2023-04-01T13:35:15;14.40;78.80
913;DHT22;443;51.448;7.028;2023-04-01T13:37:54;14.30;79.00
913;DHT22;443;51.448;7.028;2023-04-01T13:40:45;14.40;79.40
913;DHT22;443;51.448;7.028;2023-04-01T13:43:18;14.40;79.20
913;DHT22;443;51.448;7.028;2023-04-01T13:46:07;14.40;79.20
913;DHT22;443;51.448;7.028;2023-04-01T13:48:50;14.30;79.20
913;DHT22;443;51.448;7.028;2023-04-01T13:51:45;14.40;79.40
913;DHT22;443;51.448;7.028;2023-04-01T13:57:26;14.40;79.60
913;DHT22;443;51.448;7.028;2023-04-01T14:00:16;14.40;79.40
913;DHT22;443;51.448;7.028;2023-04-01T14:02:56;14.40;79.40
913;DHT22;443;51.448;7.028;2023-04-01T14:05:36;14.40;79.10
913;DHT22;443;51.448;7.028;2023-04-01T14:08:17;14.40;79.50
913;DHT22;443;51.448;7.028;2023-04-01T14:10:52;14.40;79.70
913;DHT22;443;51.448;7.028;2023-04-01T14:13:30;14.30;79.50
913;DHT22;443;51.448;7.028;2023-04-01T14:16:05;14.40;79.40
913;DHT22;443;51.448;7.028;2023-04-01T14:18:48;14.40;79.40
913;DHT22;443;51.448;7.028;2023-04-01T14:21:27;14.40;79.60
913;DHT22;443;51.448;7.028;2023-04-01T14:24:14;14.40;79.40
913;DHT22;443;51.448;7.028;2023-04-01T14:27:00;14.30;79.50
913;DHT22;443;51.448;7.028;2023-04-01T14:29:39;14.30;79.70
913;DHT22;443;51.448;7.028;2023-04-01T14:32:11;14.30;79.90
913;DHT22;443;51.448;7.028;2023-04-01T14:34:55;14.30;79.70
913;DHT22;443;51.448;7.028;2023-04-01T14:37:39;14.30;79.70
913;DHT22;443;51.448;7.028;2023-04-01T14:40:21;14.30;79.80
913;DHT22;443;51.448;7.028;2023-04-01T14:43:15;14.30;80.20
913;DHT22;443;51.448;7.028;2023-04-01T14:46:01;14.30;80.00
913;DHT22;443;51.448;7.028;2023-04-01T14:48:34;14.40;79.90
913;DHT22;443;51.448;7.028;2023-04-01T14:51:09;14.30;79.70
913;DHT22;443;51.448;7.028;2023-04-01T14:53:41;14.40;80.60
913;DHT22;443;51.448;7.028;2023-04-01T14:56:11;14.40;79.50
913;DHT22;443;51.448;7.028;2023-04-01T14:58:43;14.30;79.60
913;DHT22;443;51.448;7.028;2023-04-01T15:01:26;14.40;79.70
913;DHT22;443;51.448;7.028;2023-04-01T15:04:08;14.40;80.00
913;DHT22;443;51.448;7.028;2023-04-01T15:06:57;14.40;79.40
913;DHT22;443;51.448;7.028;2023-04-01T15:09:30;14.40;79.40
913;DHT22;443;51.448;7.028;2023-04-01T15:12:11;14.40;79.10
913;DHT22;443;51.448;7.028;2023-04-01T15:15:01;14.50;79.70
913;DHT22;443;51.448;7.028;2023-04-01T15:17:54;14.40;79.50
913;DHT22;443;51.448;7.028;2023-04-01T15:20:38;14.40;79.60
913;DHT22;443;51.448;7.028;2023-04-01T15:23:20;14.40;79.70
913;DHT22;443;51.448;7.028;2023-04-01T15:28:49;14.40;79.80
913;DHT22;443;51.448;7.028;2023-04-01T15:31:24;14.40;79.10
913;DHT22;443;51.448;7.028;2023-04-01T15:34:13;14.40;79.60
913;DHT22;443;51.448;7.028;2023-04-01T15:36:46;14.40;79.90
913;DHT22;443;51.448;7.028;2023-04-01T15:39:21;14.40;79.60
913;DHT22;443;51.448;7.028;2023-04-01T15:42:14;14.40;79.70
913;DHT22;443;51.448;7.028;2023-04-01T15:44:56;14.40;79.50
913;DHT22;443;51.448;7.028;2023-04-01T15:47:33;14.40;79.70
913;DHT22;443;51.448;7.028;2023-04-01T15:53:12;14.40;79.30
913;DHT22;443;51.448;7.028;2023-04-01T15:55:46;14.40;79.30
913;DHT22;443;51.448;7.028;2023-04-01T15:58:30;14.40;79.60
913;DHT22;443;51.448;7.028;2023-04-01T16:01:07;14.40;79.70
913;DHT22;443;51.448;7.028;2023-04-01T16:03:39;14.40;79.50
913;DHT22;443;51.448;7.028;2023-04-01T16:06:25;14.40;79.60
913;DHT22;443;51.448;7.028;2023-04-01T16:09:06;14.40;79.30
913;DHT22;443;51.448;7.028;2023-04-01T16:11:41;14.40;79.40
913;DHT22;443;51.448;7.028;2023-04-01T16:14:27;14.40;79.20
913;DHT22;443;51.448;7.028;2023-04-01T16:17:05;14.40;79.40
913;DHT22;443;51.448;7.028;2023-04-01T16:19:41;14.40;79.40
913;DHT22;443;51.448;7.028;2023-04-01T16:22:22;14.40;79.50
913;DHT22;443;51.448;7.028;2023-04-01T16:24:55;14.40;80.00
913;DHT22;443;51.448;7.028;2023-04-01T16:27:27;14.40;79.60
913;DHT22;443;51.448;7.028;2023-04-01T16:30:00;14.30;79.60
913;DHT22;443;51.448;7.028;2023-04-01T16:32:37;14.30;79.50
913;DHT22;443;51.448;7.028;2023-04-01T16:35:22;14.40;79.60
913;DHT22;443;51.448;7.028;2023-04-01T16:37:58;14.40;79.30
913;DHT22;443;51.448;7.028;2023-04-01T16:40:37;14.40;79.70
913;DHT22;443;51.448;7.028;2023-04-01T16:43:12;14.40;79.30
913;DHT22;443;51.448;7.028;2023-04-01T16:45:43;14.40;79.60
913;DHT22;443;51.448;7.028;2023-04-01T16:48:14;14.40;79.80
913;DHT22;443;51.448;7.028;2023-04-01T16:50:53;14.40;79.80
913;DHT22;443;51.448;7.028;2023-04-01T16:53:30;14.30;79.80
913;DHT22;443;51.448;7.028;2023-04-01T16:56:08;14.40;79.90
913;DHT22;443;51.448;7.028;2023-04-01T16:58:41;14.40;79.80
913;DHT22;443;51.448;7.028;2023-04-01T17:01:13;14.40;79.70
913;DHT22;443;51.448;7.028;2023-04-01T17:03:44;14.40;79.60
913;DHT22;443;51.448;7.028;2023-04-01T17:06:23;14.40;79.70
913;DHT22;443;51.448;7.028;2023-04-01T17:09:19;14.40;79.70
913;DHT22;443;51.448;7.028;2023-04-01T17:11:56;14.40;79.40
913;DHT22;443;51.448;7.028;2023-04-01T17:14:29;14.40;79.70
913;DHT22;443;51.448;7.028;2023-04-01T17:17:09;14.40;79.70
913;DHT22;443;51.448;7.028;2023-04-01T17:19:46;14.30;79.70
913;DHT22;443;51.448;7.028;2023-04-01T17:22:25;14.30;79.90
913;DHT22;443;51.448;7.028;2023-04-01T17:25:08;14.30;79.90
913;DHT22;443;51.448;7.028;2023-04-01T17:27:44;14.30;80.00
913;DHT22;443;51.448;7.028;2023-04-01T17:30:28;14.30;79.90
913;DHT22;443;51.448;7.028;2023-04-01T17:33:24;14.30;80.00
913;DHT22;443;51.448;7.028;2023-04-01T17:35:58;14.30;79.80
913;DHT22;443;51.448;7.028;2023-04-01T17:38:48;14.30;79.80
913;DHT22;443;51.448;7.028;2023-04-01T17:41:28;14.40;79.70
913;DHT22;443;51.448;7.028;2023-04-01T17:44:03;14.30;79.80
913;DHT22;443;51.448;7.028;2023-04-01T17:47:06;14.30;79.90
913;DHT22;443;51.448;7.028;2023-04-01T17:49:39;14.30;80.10
913;DHT22;443;51.448;7.028;2023-04-01T17:52:15;14.30;80.30
913;DHT22;443;51.448;7.028;2023-04-01T17:54:47;14.30;80.20
913;DHT22;443;51.448;7.028;2023-04-01T17:57:31;14.30;79.90
913;DHT22;443;51.448;7.028;2023-04-01T18:00:03;14.30;80.10
913;DHT22;443;51.448;7.028;2023-04-01T18:02:38;14.30;79.90
913;DHT22;443;51.448;7.028;2023-04-01T18:05:33;14.30;80.00
913;DHT22;443;51.448;7.028;2023-04-01T18:08:17;14.30;80.10
913;DHT22;443;51.448;7.028;2023-04-01T18:10:58;14.30;80.10
913;DHT22;443;51.448;7.028;2023-04-01T18:13:52;14.20;80.10
913;DHT22;443;51.448;7.028;2023-04-01T18:16:42;14.30;80.10
913;DHT22;443;51.448;7.028;2023-04-01T18:19:17;14.20;80.20
913;DHT22;443;51.448;7.028;2023-04-01T18:21:48;14.20;80.10
913;DHT22;443;51.448;7.028;2023-04-01T18:24:21;14.30;80.40
913;DHT22;443;51.448;7.028;2023-04-01T18:27:01;14.30;80.40
913;DHT22;443;51.448;7.028;2023-04-01T18:29:36;14.30;80.10